Time;durP1;ratioP1;P1;durP2;ratioP2;P2;SDS_P1;SDS_P2;PMS_P1;PMS_P2;Temp;Humidity;BMP_temperature;BMP_pressure;BME280_temperature;BME280_humidity;BME280_pressure;Samples;Min_cycle;Max_cycle;Signal;HPM_P1;HPM_P2
2021/01/14 00:01:58;;;;;;;9.17;6.27;;;-0.60;90.00;;;;;;6272592;28;20482;-60
2021/01/14 00:05:01;;;;;;;7.27;6.13;;;-0.60;90.00;;;;;;6265086;28;20589;-60
2021/01/14 00:08:04;;;;;;;7.17;5.83;;;-0.60;93.10;;;;;;6257226;28;20962;-61
2021/01/14 00:11:06;;;;;;;8.70;6.23;;;-0.50;93.00;;;;;;6258158;28;20819;-61
2021/01/14 00:14:10;;;;;;;8.13;5.47;;;-0.50;92.70;;;;;;6256595;28;20481;-60
2021/01/14 00:17:12;;;;;;;11.30;7.37;;;-0.60;92.30;;;;;;6257733;28;20478;-60
2021/01/14 00:20:18;;;;;;;8.93;6.17;;;-0.60;91.90;;;;;;6258659;28;20477;-60
2021/01/14 00:23:20;;;;;;;6.63;5.93;;;-0.60;91.80;;;;;;6260334;28;20790;-61
2021/01/14 00:26:22;;;;;;;9.37;6.00;;;-0.50;91.60;;;;;;6260672;28;20435;-60
2021/01/14 00:29:27;;;;;;;7.27;6.03;;;-0.60;91.50;;;;;;6261067;28;20792;-61
2021/01/14 00:32:32;;;;;;;7.30;6.60;;;-0.50;91.30;;;;;;6259720;28;20451;-60
2021/01/14 00:35:34;;;;;;;6.00;5.30;;;-0.60;91.00;;;;;;6258426;28;20443;-60
2021/01/14 00:38:36;;;;;;;7.50;5.83;;;-0.50;90.60;;;;;;6259726;28;20451;-60
2021/01/14 00:41:38;;;;;;;9.03;6.03;;;-0.50;90.50;;;;;;6255236;28;20435;-60
2021/01/14 00:44:41;;;;;;;5.43;4.93;;;-0.50;90.40;;;;;;6261433;28;20471;-60
2021/01/14 00:47:43;;;;;;;8.77;6.13;;;-0.50;90.40;;;;;;6261746;28;20553;-60
2021/01/14 00:50:45;;;;;;;8.93;7.30;;;-0.50;90.40;;;;;;6257929;28;20541;-60
2021/01/14 00:53:48;;;;;;;7.73;7.00;;;-0.40;90.40;;;;;;6259607;28;20975;-61
2021/01/14 00:56:50;;;;;;;9.40;7.13;;;-0.50;90.60;;;;;;6258240;28;20489;-60
2021/01/14 00:59:53;;;;;;;8.40;6.30;;;-0.60;90.50;;;;;;6260012;28;20475;-60
2021/01/14 01:02:55;;;;;;;8.23;6.07;;;-0.60;90.80;;;;;;6251815;28;20478;-60
2021/01/14 01:05:57;;;;;;;10.40;6.47;;;-0.60;90.60;;;;;;6261797;28;20463;-60
2021/01/14 01:09:00;;;;;;;6.80;6.10;;;-0.60;90.80;;;;;;6249692;28;20471;-63
2021/01/14 01:12:02;;;;;;;7.90;7.10;;;-0.70;90.90;;;;;;6259043;28;20471;-60
2021/01/14 01:15:07;;;;;;;9.20;6.57;;;-0.50;91.00;;;;;;6256781;28;20470;-59
2021/01/14 01:18:09;;;;;;;6.73;5.93;;;-0.50;90.80;;;;;;6249273;28;20476;-59
2021/01/14 01:21:11;;;;;;;9.13;6.20;;;-0.50;90.90;;;;;;6249540;28;20463;-60
2021/01/14 01:24:14;;;;;;;5.90;5.33;;;-0.40;91.00;;;;;;6253758;28;20503;-60
2021/01/14 01:27:16;;;;;;;7.90;5.93;;;-0.40;90.90;;;;;;6254031;28;20475;-58
2021/01/14 01:30:20;;;;;;;7.03;4.67;;;-0.50;90.80;;;;;;6253996;28;20481;-58
2021/01/14 01:33:26;;;;;;;8.67;6.00;;;-0.50;91.00;;;;;;6253823;28;20970;-58
2021/01/14 01:36:28;;;;;;;11.87;5.57;;;-0.40;91.00;;;;;;6253858;28;20819;-58
2021/01/14 01:39:30;;;;;;;6.57;5.37;;;-0.40;90.90;;;;;;6253904;28;20489;-59
2021/01/14 01:42:35;;;;;;;7.70;6.00;;;-0.40;91.00;;;;;;6253759;28;20580;-59
2021/01/14 01:45:38;;;;;;;4.90;4.50;;;-0.40;91.00;;;;;;6244458;28;20483;-59
2021/01/14 01:48:41;;;;;;;6.53;5.90;;;-0.40;91.20;;;;;;6253421;28;20482;-59
2021/01/14 01:51:43;;;;;;;9.73;6.93;;;-0.40;91.10;;;;;;6272849;28;20477;-59
2021/01/14 01:54:45;;;;;;;12.63;9.23;;;-0.40;91.10;;;;;;6273082;28;20466;-60
2021/01/14 01:57:48;;;;;;;8.73;7.80;;;-0.30;91.00;;;;;;6266651;28;20475;-60
2021/01/14 02:00:51;;;;;;;7.47;5.13;;;-0.40;91.00;;;;;;6266693;28;20540;-61
2021/01/14 02:03:54;;;;;;;7.77;5.20;;;-0.40;91.50;;;;;;6264773;28;20608;-60
2021/01/14 02:07:05;;;;;;;7.00;5.00;;;-0.40;91.20;;;;;;6265656;28;20765;-59
2021/01/14 02:10:14;;;;;;;6.07;4.53;;;-0.40;91.30;;;;;;6264315;28;20467;-59
2021/01/14 02:13:26;;;;;;;6.73;4.77;;;-0.30;91.30;;;;;;6256199;28;20536;-59
2021/01/14 02:16:31;;;;;;;6.07;4.67;;;-0.30;91.10;;;;;;6252977;28;20475;-60
2021/01/14 02:19:40;;;;;;;6.60;5.00;;;-0.20;91.20;;;;;;6252893;28;20475;-59
2021/01/14 02:22:45;;;;;;;7.63;5.27;;;-0.20;91.20;;;;;;6252750;28;20475;-62
2021/01/14 02:26:22;;;;;;;5.93;5.33;;;-0.20;91.10;;;;;;6255567;28;20801;-60
2021/01/14 02:29:24;;;;;;;6.57;5.63;;;-0.10;91.30;;;;;;6265313;28;20463;-62
2021/01/14 02:32:26;;;;;;;7.90;5.70;;;-0.10;91.20;;;;;;6263092;28;20442;-61
2021/01/14 02:35:31;;;;;;;5.90;5.33;;;0.00;91.20;;;;;;6262528;28;20436;-61
2021/01/14 02:38:34;;;;;;;9.30;8.40;;;0.00;91.20;;;;;;6264938;28;20454;-61
2021/01/14 02:41:37;;;;;;;6.70;5.93;;;0.10;91.20;;;;;;6275698;28;20439;-61
2021/01/14 02:44:39;;;;;;;7.97;5.60;;;0.00;91.10;;;;;;6277080;28;20525;-60
2021/01/14 02:47:44;;;;;;;5.47;4.60;;;0.00;91.20;;;;;;6272542;28;20493;-59
2021/01/14 02:50:51;;;;;;;6.70;5.10;;;0.00;91.50;;;;;;6276776;28;20805;-59
2021/01/14 02:53:54;;;;;;;8.30;5.27;;;-0.10;91.10;;;;;;6277193;28;20466;-59
2021/01/14 02:56:58;;;;;;;6.20;4.57;;;-0.10;91.10;;;;;;6277021;28;20474;-59
2021/01/14 03:00:00;;;;;;;6.10;4.00;;;0.00;91.40;;;;;;6276663;28;20474;-59
2021/01/14 03:03:03;;;;;;;4.93;4.17;;;0.00;91.40;;;;;;6276262;28;20484;-59
2021/01/14 03:06:05;;;;;;;4.80;4.00;;;0.10;91.40;;;;;;6276625;28;20470;-60
2021/01/14 03:09:07;;;;;;;5.30;4.10;;;0.10;91.50;;;;;;6276193;28;20478;-60
2021/01/14 03:12:10;;;;;;;9.70;4.80;;;0.20;91.40;;;;;;6276221;28;20776;-59
2021/01/14 03:15:13;;;;;;;5.63;5.10;;;0.20;91.40;;;;;;6276674;28;20476;-59
2021/01/14 03:18:15;;;;;;;8.70;6.10;;;0.20;91.30;;;;;;6276242;28;20474;-59
2021/01/14 03:21:20;;;;;;;7.50;6.43;;;0.30;91.30;;;;;;6276602;28;20470;-59
2021/01/14 03:24:23;;;;;;;6.70;5.00;;;0.40;91.40;;;;;;6276283;28;20912;-59
2021/01/14 03:27:26;;;;;;;7.90;5.90;;;0.40;91.20;;;;;;6275892;28;20803;-59
2021/01/14 03:30:28;;;;;;;6.40;4.97;;;0.50;91.20;;;;;;6276071;28;20476;-59
2021/01/14 03:33:30;;;;;;;4.83;4.40;;;0.50;91.10;;;;;;6276121;28;20470;-59
2021/01/14 03:36:33;;;;;;;5.73;5.20;;;0.50;91.20;;;;;;6276142;28;20477;-59
2021/01/14 03:39:35;;;;;;;5.13;4.60;;;0.50;91.40;;;;;;6275789;28;20474;-59
2021/01/14 03:42:38;;;;;;;5.97;4.30;;;0.30;91.70;;;;;;6275784;28;20482;-59
2021/01/14 03:45:41;;;;;;;4.30;3.37;;;0.30;91.70;;;;;;6274810;28;20470;-58
2021/01/14 03:48:43;;;;;;;7.77;4.70;;;0.40;91.50;;;;;;6276203;28;20798;-59
2021/01/14 03:51:48;;;;;;;5.80;5.13;;;0.40;91.70;;;;;;6275397;28;20812;-59
2021/01/14 03:54:50;;;;;;;7.30;6.00;;;0.40;92.20;;;;;;6275586;28;20466;-59
2021/01/14 03:57:53;;;;;;;11.27;5.77;;;0.40;92.50;;;;;;6275394;28;20484;-59
2021/01/14 04:00:55;;;;;;;5.77;5.07;;;0.60;92.60;;;;;;6275324;28;20479;-59
2021/01/14 04:03:58;;;;;;;9.90;4.77;;;0.60;92.60;;;;;;6275084;28;20813;-61
2021/01/14 04:07:00;;;;;;;6.20;4.77;;;0.70;92.90;;;;;;6275066;28;20477;-59
2021/01/14 04:10:03;;;;;;;8.33;5.50;;;0.80;93.00;;;;;;6275010;28;20478;-59
2021/01/14 04:13:06;;;;;;;4.60;4.10;;;0.70;93.80;;;;;;6275187;28;20485;-59
2021/01/14 04:16:12;;;;;;;5.87;3.97;;;0.70;94.10;;;;;;6274741;28;20973;-59
2021/01/14 04:19:15;;;;;;;3.97;3.57;;;0.70;94.10;;;;;;6274588;28;20916;-59
2021/01/14 04:22:20;;;;;;;4.10;3.70;;;0.70;94.10;;;;;;6274870;28;20462;-59
2021/01/14 04:25:30;;;;;;;4.27;3.87;;;0.80;94.20;;;;;;6274926;28;20563;-60
2021/01/14 04:28:33;;;;;;;4.10;3.67;;;0.80;94.10;;;;;;6274694;28;20785;-59
2021/01/14 04:31:35;;;;;;;5.10;4.50;;;0.80;94.00;;;;;;6274476;28;20479;-59
2021/01/14 04:34:38;;;;;;;5.00;4.30;;;0.80;94.00;;;;;;6274663;28;20815;-59
2021/01/14 04:37:40;;;;;;;5.57;4.20;;;0.90;94.10;;;;;;6274544;28;20972;-59
2021/01/14 04:40:42;;;;;;;4.80;4.40;;;0.90;94.10;;;;;;6274273;28;20788;-59
2021/01/14 04:43:46;;;;;;;5.87;4.93;;;0.90;94.00;;;;;;6274271;28;20470;-59
2021/01/14 04:46:50;;;;;;;4.87;4.43;;;0.90;94.50;;;;;;6274015;28;20474;-59
2021/01/14 04:49:57;;;;;;;6.90;5.13;;;0.90;94.40;;;;;;6274109;28;20473;-59
2021/01/14 04:53:00;;;;;;;6.77;6.07;;;1.00;94.30;;;;;;6274331;28;20834;-59
2021/01/14 04:56:04;;;;;;;5.83;4.90;;;1.00;94.20;;;;;;6274663;28;20984;-59
2021/01/14 04:59:07;;;;;;;6.37;4.90;;;1.10;94.50;;;;;;6273563;28;20493;-59
2021/01/14 05:02:19;;;;;;;5.43;4.87;;;1.10;94.30;;;;;;6274144;28;20475;-59
2021/01/14 05:05:23;;;;;;;10.40;4.70;;;1.10;94.00;;;;;;6273759;28;20921;-62
2021/01/14 05:08:29;;;;;;;7.40;4.50;;;1.10;93.90;;;;;;6273951;28;20778;-59
2021/01/14 05:11:42;;;;;;;6.33;4.20;;;1.10;93.70;;;;;;6273845;28;20808;-59
2021/01/14 05:14:45;;;;;;;5.60;4.47;;;1.20;93.70;;;;;;6274268;28;20458;-58
2021/01/14 05:17:48;;;;;;;4.67;3.60;;;1.20;93.60;;;;;;6273968;28;20477;-59
2021/01/14 05:20:50;;;;;;;4.20;3.87;;;1.20;93.60;;;;;;6274171;28;20469;-59
2021/01/14 05:24:08;;;;;;;5.40;3.90;;;1.20;93.70;;;;;;6273897;28;20462;-59
2021/01/14 05:27:22;;;;;;;6.80;4.17;;;1.10;93.80;;;;;;6273976;28;20481;-59
2021/01/14 05:30:26;;;;;;;6.67;4.80;;;1.10;93.80;;;;;;6274311;28;20486;-59
2021/01/14 05:33:28;;;;;;;5.57;5.00;;;1.20;93.70;;;;;;6274429;28;20481;-59
2021/01/14 05:36:52;;;;;;;5.13;4.43;;;1.20;94.10;;;;;;6273984;28;20790;-59
2021/01/14 05:39:54;;;;;;;5.57;4.90;;;1.20;93.80;;;;;;6273852;28;20493;-60
2021/01/14 05:43:05;;;;;;;6.23;5.23;;;1.20;93.90;;;;;;6273745;28;20474;-60
2021/01/14 05:46:16;;;;;;;8.63;5.83;;;1.20;94.00;;;;;;6273770;28;20482;-60
2021/01/14 05:49:18;;;;;;;7.73;6.73;;;1.20;94.10;;;;;;6273978;28;20814;-60
2021/01/14 05:52:23;;;;;;;9.03;7.40;;;1.20;94.30;;;;;;6273549;28;20801;-60
2021/01/14 05:55:31;;;;;;;10.90;6.70;;;1.30;94.40;;;;;;6273534;28;20800;-60
2021/01/14 05:58:37;;;;;;;9.03;6.50;;;1.20;94.30;;;;;;6273587;28;20485;-60
2021/01/14 06:01:53;;;;;;;6.73;5.80;;;1.30;94.50;;;;;;6263962;28;20940;-60
2021/01/14 06:04:56;;;;;;;7.10;5.77;;;1.30;94.50;;;;;;6273636;28;20934;-60
2021/01/14 06:07:59;;;;;;;9.43;6.53;;;1.30;94.50;;;;;;6273407;28;20482;-60
2021/01/14 06:11:18;;;;;;;9.80;6.60;;;1.30;94.30;;;;;;6276785;28;20478;-60
2021/01/14 06:14:29;;;;;;;8.60;7.10;;;1.30;94.20;;;;;;6277489;28;20485;-60
2021/01/14 06:17:33;;;;;;;7.07;6.27;;;1.30;94.40;;;;;;6278014;28;20458;-60
2021/01/14 06:20:49;;;;;;;8.50;6.10;;;1.20;94.60;;;;;;6277523;28;20447;-60
2021/01/14 06:23:51;;;;;;;7.40;6.00;;;1.10;95.00;;;;;;6277939;28;20474;-60
2021/01/14 06:26:56;;;;;;;8.60;5.57;;;1.00;95.30;;;;;;6277301;28;20953;-60
2021/01/14 06:30:03;;;;;;;8.73;5.67;;;1.00;95.70;;;;;;6277161;28;20466;-60
2021/01/14 06:33:06;;;;;;;7.40;5.90;;;0.90;96.20;;;;;;6277410;28;20978;-60
2021/01/14 06:36:10;;;;;;;10.20;7.73;;;1.00;96.50;;;;;;6277546;28;20465;-60
2021/01/14 06:39:16;;;;;;;9.60;6.53;;;0.90;96.90;;;;;;6277047;28;20470;-60
2021/01/14 06:42:23;;;;;;;8.27;6.23;;;0.90;97.20;;;;;;6277228;28;20470;-60
2021/01/14 06:45:46;;;;;;;14.60;6.27;;;0.90;97.40;;;;;;6276678;28;20783;-60
2021/01/14 06:49:05;;;;;;;7.80;6.03;;;1.00;97.70;;;;;;6276869;28;20966;-60
2021/01/14 06:52:14;;;;;;;8.77;5.87;;;1.10;97.70;;;;;;6277008;28;20454;-60
2021/01/14 06:55:17;;;;;;;8.20;6.03;;;1.20;97.50;;;;;;6276819;28;20470;-60
2021/01/14 06:58:19;;;;;;;7.87;5.70;;;1.20;97.50;;;;;;6276767;28;20488;-60
2021/01/14 07:01:22;;;;;;;11.67;6.80;;;1.20;97.50;;;;;;6277128;28;20523;-60
2021/01/14 07:04:36;;;;;;;8.90;6.80;;;1.30;98.00;;;;;;6272710;28;20466;-60
2021/01/14 07:07:46;;;;;;;5.40;4.90;;;1.20;99.10;;;;;;6276692;28;20474;-60
2021/01/14 07:11:06;;;;;;;13.13;5.07;;;1.30;99.90;;;;;;6276641;28;20481;-60
2021/01/14 07:14:13;;;;;;;6.47;5.80;;;1.30;99.90;;;;;;6276225;28;20970;-60
2021/01/14 07:17:26;;;;;;;7.70;6.00;;;1.30;99.90;;;;;;6276104;28;20484;-60
2021/01/14 07:20:30;;;;;;;5.43;4.73;;;1.40;99.90;;;;;;6276069;28;20453;-61
2021/01/14 07:23:37;;;;;;;5.37;4.63;;;1.50;99.90;;;;;;6276515;28;20442;-60
2021/01/14 07:26:43;;;;;;;6.90;4.90;;;1.60;99.90;;;;;;6276395;28;20516;-61
2021/01/14 07:29:46;;;;;;;5.60;5.10;;;1.80;99.90;;;;;;6275760;28;21016;-60
2021/01/14 07:32:56;;;;;;;5.40;4.60;;;1.80;99.90;;;;;;6275711;28;20545;-60
2021/01/14 07:36:17;;;;;;;5.23;4.57;;;1.90;99.90;;;;;;6276087;28;20466;-60
2021/01/14 07:39:21;;;;;;;5.47;4.97;;;2.00;99.90;;;;;;6275741;28;20485;-59
2021/01/14 07:42:26;;;;;;;4.83;4.27;;;2.10;99.90;;;;;;6275560;28;20534;-60
2021/01/14 07:45:28;;;;;;;4.03;3.73;;;2.10;99.90;;;;;;6275530;28;20572;-60
2021/01/14 07:48:34;;;;;;;4.23;3.50;;;2.20;99.90;;;;;;6275350;28;20481;-61
2021/01/14 07:51:47;;;;;;;3.30;2.20;;;2.20;99.90;;;;;;6275903;28;20470;-60
2021/01/14 07:54:57;;;;;;;3.03;2.50;;;2.30;99.90;;;;;;6275930;28;20470;-60
2021/01/14 07:58:06;;;;;;;1.73;1.60;;;2.50;99.90;;;;;;6275209;28;20832;-60
2021/01/14 08:01:10;;;;;;;4.50;2.20;;;2.50;98.80;;;;;;6275167;28;20481;-61
2021/01/14 08:04:22;;;;;;;2.20;2.10;;;2.50;97.40;;;;;;6275150;28;20932;-61
2021/01/14 08:07:26;;;;;;;2.40;1.80;;;2.70;96.60;;;;;;6275299;28;20486;-61
2021/01/14 08:10:29;;;;;;;2.13;1.97;;;2.90;95.60;;;;;;6275468;28;20969;-61
2021/01/14 08:13:31;;;;;;;4.30;1.57;;;3.00;94.60;;;;;;6274848;28;20815;-61
2021/01/14 08:16:35;;;;;;;4.57;2.00;;;3.10;93.70;;;;;;6274827;28;20949;-61
2021/01/14 08:19:39;;;;;;;2.03;1.93;;;3.20;93.60;;;;;;6274850;28;20474;-61
2021/01/14 08:22:45;;;;;;;1.50;1.37;;;3.30;93.40;;;;;;6274737;28;20485;-61
2021/01/14 08:25:48;;;;;;;2.00;1.60;;;3.50;92.80;;;;;;6274809;28;20475;-61
2021/01/14 08:28:59;;;;;;;1.90;1.80;;;3.50;92.70;;;;;;6274563;28;20648;-61
2021/01/14 08:32:01;;;;;;;2.67;1.83;;;3.50;91.20;;;;;;6264707;28;20600;-61
2021/01/14 08:35:26;;;;;;;1.93;1.83;;;3.50;90.50;;;;;;6259997;28;20577;-61
2021/01/14 08:38:31;;;;;;;1.77;1.50;;;3.50;90.10;;;;;;6263492;28;20528;-64
2021/01/14 08:41:36;;;;;;;4.57;2.37;;;3.50;90.60;;;;;;6258288;28;20432;-62
2021/01/14 08:44:45;;;;;;;2.60;2.40;;;3.50;90.80;;;;;;6253400;28;20455;-63
2021/01/14 08:47:56;;;;;;;6.07;4.10;;;3.50;90.70;;;;;;6273699;28;20489;-64
2021/01/14 08:51:03;;;;;;;8.03;5.10;;;3.50;90.40;;;;;;6267673;28;20454;-62
2021/01/14 08:54:08;;;;;;;18.67;8.17;;;3.50;90.20;;;;;;6262602;28;20470;-63
2021/01/14 08:57:10;;;;;;;34.73;16.17;;;3.50;89.60;;;;;;6249393;28;20475;-63
2021/01/14 09:00:14;;;;;;;15.17;8.17;;;3.50;89.60;;;;;;6249403;28;20475;-61
2021/01/14 09:03:17;;;;;;;8.43;4.30;;;3.40;88.20;;;;;;6249320;28;20609;-62
2021/01/14 09:06:29;;;;;;;3.67;2.60;;;3.50;87.90;;;;;;6249130;28;21038;-61
2021/01/14 09:09:32;;;;;;;3.57;3.20;;;3.60;87.50;;;;;;6248887;28;20781;-63
2021/01/14 09:12:35;;;;;;;4.40;2.00;;;3.70;86.40;;;;;;6272461;28;20973;-61
2021/01/14 09:15:38;;;;;;;1.50;1.40;;;3.80;83.90;;;;;;6274137;28;20477;-62
2021/01/14 09:18:42;;;;;;;2.00;1.73;;;4.00;81.70;;;;;;6274031;28;20501;-63
2021/01/14 09:21:44;;;;;;;2.40;1.70;;;4.20;80.90;;;;;;6274334;28;20474;-63
2021/01/14 09:24:48;;;;;;;2.77;1.53;;;4.50;79.30;;;;;;6273717;28;20488;-62
2021/01/14 09:27:50;;;;;;;1.30;1.20;;;4.90;66.30;;;;;;6273793;28;20478;-62
2021/01/14 09:31:01;;;;;;;0.80;0.80;;;5.10;56.20;;;;;;6273650;28;20470;-62
2021/01/14 09:34:03;;;;;;;0.70;0.70;;;5.20;53.80;;;;;;6273721;28;20858;-62
2021/01/14 09:37:15;;;;;;;0.93;0.80;;;5.50;51.60;;;;;;6264620;28;20466;-62
2021/01/14 09:40:21;;;;;;;1.17;0.93;;;5.80;51.50;;;;;;6273686;28;20549;-62
2021/01/14 09:43:25;;;;;;;1.53;1.20;;;6.20;51.20;;;;;;6273545;28;20974;-63
2021/01/14 09:46:29;;;;;;;2.43;1.10;;;6.40;49.70;;;;;;6255870;28;20539;-62
2021/01/14 09:49:33;;;;;;;0.97;0.97;;;6.50;49.30;;;;;;6253404;28;20820;-60
2021/01/14 09:52:35;;;;;;;1.47;1.20;;;6.40;48.90;;;;;;6253551;28;20474;-61
2021/01/14 09:55:40;;;;;;;2.27;0.90;;;6.10;48.10;;;;;;6253603;28;20483;-63
2021/01/14 09:58:45;;;;;;;1.50;0.80;;;5.80;49.60;;;;;;6253255;28;20475;-60
2021/01/14 10:01:53;;;;;;;3.50;2.33;;;5.50;51.90;;;;;;6253025;28;21052;-60
2021/01/14 10:04:57;;;;;;;1.70;1.30;;;5.40;52.30;;;;;;6253018;28;20562;-61
2021/01/14 10:08:02;;;;;;;0.80;0.80;;;5.40;54.10;;;;;;6253033;28;20471;-61
2021/01/14 10:11:05;;;;;;;2.40;1.20;;;5.30;55.20;;;;;;6256564;28;20511;-60
2021/01/14 10:14:16;;;;;;;1.30;1.20;;;5.20;57.10;;;;;;6277406;28;20474;-61
2021/01/14 10:17:18;;;;;;;0.90;0.90;;;5.20;58.50;;;;;;6252771;28;20517;-59
2021/01/14 10:20:21;;;;;;;0.90;0.90;;;5.20;60.20;;;;;;6260622;28;20477;-59
2021/01/14 10:23:25;;;;;;;1.10;1.00;;;5.10;61.60;;;;;;6256678;28;20466;-61
2021/01/14 10:26:29;;;;;;;1.30;1.20;;;5.20;62.70;;;;;;6252539;28;20777;-61
2021/01/14 10:29:38;;;;;;;1.10;1.07;;;5.40;63.40;;;;;;6258425;28;20934;-62
2021/01/14 10:32:41;;;;;;;1.20;1.10;;;5.60;63.50;;;;;;6277170;28;20423;-62
2021/01/14 10:35:44;;;;;;;1.20;1.03;;;5.70;64.20;;;;;;6277375;28;20471;-61
2021/01/14 10:38:51;;;;;;;1.00;1.00;;;5.90;64.10;;;;;;6261649;28;20463;-63
2021/01/14 10:41:54;;;;;;;3.40;0.77;;;6.10;64.30;;;;;;6266623;28;20469;-60
2021/01/14 10:44:58;;;;;;;1.27;0.90;;;6.20;64.20;;;;;;6267631;28;20474;-61
2021/01/14 10:48:12;;;;;;;0.90;0.90;;;6.10;64.00;;;;;;6252035;28;20806;-60
2021/01/14 10:51:32;;;;;;;1.20;1.13;;;5.70;65.40;;;;;;6251903;28;20467;-62
2021/01/14 10:54:34;;;;;;;1.63;0.90;;;5.60;66.20;;;;;;6274031;28;20485;-62
2021/01/14 10:57:54;;;;;;;0.80;0.80;;;5.60;66.80;;;;;;6276354;28;20482;-62
2021/01/14 11:00:56;;;;;;;5.13;0.90;;;5.70;67.10;;;;;;6276396;28;20489;-60
2021/01/14 11:04:07;;;;;;;1.33;1.27;;;5.70;67.10;;;;;;6276523;28;20470;-61
2021/01/14 11:07:13;;;;;;;1.20;1.10;;;5.70;67.80;;;;;;6276253;28;20471;-61
2021/01/14 11:10:18;;;;;;;0.90;0.90;;;5.80;67.90;;;;;;6276216;28;20816;-63
2021/01/14 11:13:36;;;;;;;1.00;0.90;;;6.10;68.10;;;;;;6276301;28;20481;-64
2021/01/14 11:16:38;;;;;;;2.13;1.20;;;6.30;67.00;;;;;;6265522;28;20475;-63
2021/01/14 11:19:41;;;;;;;1.80;1.70;;;6.40;65.80;;;;;;6270389;28;20842;-62
2021/01/14 11:22:43;;;;;;;4.17;1.30;;;7.70;67.10;;;;;;6276040;28;20488;-62
2021/01/14 11:25:45;;;;;;;0.80;0.70;;;11.70;57.10;;;;;;6276109;28;20474;-61
2021/01/14 11:28:49;;;;;;;1.17;0.60;;;15.50;46.70;;;;;;6262456;28;20470;-59
2021/01/14 11:31:51;;;;;;;1.40;0.70;;;19.40;38.50;;;;;;6275295;28;20509;-64
2021/01/14 11:34:55;;;;;;;1.93;1.00;;;21.20;32.00;;;;;;6272593;28;20813;-63
2021/01/14 11:37:57;;;;;;;1.03;0.67;;;21.20;29.70;;;;;;6267863;28;20981;-60
2021/01/14 11:41:01;;;;;;;2.17;1.13;;;21.00;28.70;;;;;;6275694;28;20588;-66
2021/01/14 11:44:05;;;;;;;3.03;0.90;;;22.30;28.00;;;;;;6273588;28;20231;-60
2021/01/14 11:47:07;;;;;;;1.00;0.70;;;23.40;26.30;;;;;;6250621;28;20240;-61
2021/01/14 11:50:10;;;;;;;1.70;0.53;;;24.10;25.60;;;;;;6250468;28;20698;-62
2021/01/14 11:53:13;;;;;;;1.77;0.77;;;25.00;23.50;;;;;;6250686;28;20277;-62
2021/01/14 11:56:16;;;;;;;1.10;0.80;;;24.10;23.70;;;;;;6250202;28;20246;-62
2021/01/14 11:59:21;;;;;;;1.30;0.70;;;24.20;23.50;;;;;;6250542;28;20260;-61
2021/01/14 12:02:23;;;;;;;2.27;1.00;;;25.40;23.50;;;;;;6255663;28;20274;-68
2021/01/14 12:05:25;;;;;;;1.33;1.03;;;25.90;22.30;;;;;;6258513;28;20197;-63
2021/01/14 12:08:30;;;;;;;0.90;0.63;;;26.60;21.90;;;;;;6249713;28;20227;-63
2021/01/14 12:11:32;;;;;;;1.03;0.50;;;27.20;21.10;;;;;;6250388;28;20223;-63
2021/01/14 12:14:36;;;;;;;1.27;0.70;;;27.60;20.00;;;;;;6260308;28;20215;-63
2021/01/14 12:17:40;;;;;;;1.23;0.60;;;26.40;20.10;;;;;;6272118;28;20314;-63
2021/01/14 12:20:43;;;;;;;1.30;0.80;;;24.60;21.00;;;;;;6274940;28;20200;-63
2021/01/14 12:23:46;;;;;;;1.83;0.70;;;24.20;21.50;;;;;;6265284;28;20216;-62
2021/01/14 12:26:48;;;;;;;0.90;0.70;;;24.00;22.00;;;;;;6274750;28;20231;-63
2021/01/14 12:29:51;;;;;;;2.10;1.00;;;24.70;21.70;;;;;;6274180;28;20231;-63
2021/01/14 12:32:53;;;;;;;4.10;0.60;;;24.80;21.60;;;;;;6274312;28;20230;-62
2021/01/14 12:35:55;;;;;;;3.83;0.80;;;24.40;20.90;;;;;;6274134;28;20231;-62
2021/01/14 12:38:57;;;;;;;1.07;0.50;;;23.90;21.90;;;;;;6257291;28;20568;-63
2021/01/14 12:42:00;;;;;;;4.00;0.80;;;23.50;21.80;;;;;;6257384;28;20244;-63
2021/01/14 12:45:03;;;;;;;1.93;0.50;;;24.00;21.30;;;;;;6261009;28;20282;-64
2021/01/14 12:48:06;;;;;;;3.10;0.80;;;22.90;21.40;;;;;;6249246;28;20255;-63
2021/01/14 12:51:11;;;;;;;1.03;0.60;;;22.60;22.00;;;;;;6249379;28;20239;-64
2021/01/14 12:54:14;;;;;;;2.63;0.80;;;22.60;22.00;;;;;;6249837;28;20236;-64
2021/01/14 12:57:16;;;;;;;1.87;0.60;;;22.90;21.50;;;;;;6249138;28;20666;-62
2021/01/14 13:00:22;;;;;;;2.00;0.60;;;22.60;22.00;;;;;;6248951;28;20319;-64
2021/01/14 13:03:27;;;;;;;1.30;0.80;;;23.30;22.20;;;;;;6260357;28;20232;-63
2021/01/14 13:06:30;;;;;;;1.30;0.40;;;24.10;21.30;;;;;;6273647;28;20639;-62
2021/01/14 13:09:32;;;;;;;1.00;0.60;;;24.20;21.00;;;;;;6273872;28;20573;-61
2021/01/14 13:12:34;;;;;;;0.70;0.50;;;23.70;21.10;;;;;;6273908;28;20307;-62
2021/01/14 13:15:38;;;;;;;1.97;0.73;;;22.90;21.70;;;;;;6273731;28;20230;-62
2021/01/14 13:18:40;;;;;;;2.33;0.80;;;22.60;22.00;;;;;;6275212;28;20575;-60
2021/01/14 13:21:46;;;;;;;0.87;0.63;;;22.30;22.20;;;;;;6278879;28;20253;-61
2021/01/14 13:24:48;;;;;;;2.10;0.57;;;21.90;22.60;;;;;;6278547;28;20553;-62
2021/01/14 13:27:53;;;;;;;1.13;0.60;;;21.40;22.80;;;;;;6265974;28;20223;-63
2021/01/14 13:30:56;;;;;;;2.20;0.97;;;21.70;23.20;;;;;;6259014;28;20228;-62
2021/01/14 13:33:58;;;;;;;0.97;0.50;;;22.10;23.10;;;;;;6253782;28;20275;-62
2021/01/14 13:37:03;;;;;;;0.73;0.53;;;21.90;22.70;;;;;;6257149;28;20673;-61
2021/01/14 13:40:12;;;;;;;1.33;0.60;;;22.30;22.80;;;;;;6253532;28;20224;-61
2021/01/14 13:43:14;;;;;;;1.40;0.73;;;22.50;22.20;;;;;;6253365;28;20224;-62
2021/01/14 13:46:17;;;;;;;2.33;0.70;;;22.00;22.20;;;;;;6273065;28;20266;-60
2021/01/14 13:49:20;;;;;;;1.30;0.70;;;21.10;23.00;;;;;;6278089;28;20239;-62
2021/01/14 13:52:23;;;;;;;1.17;0.50;;;20.30;23.60;;;;;;6277743;28;20301;-60
2021/01/14 13:55:25;;;;;;;0.93;0.60;;;20.00;23.60;;;;;;6273772;28;20231;-60
2021/01/14 13:58:27;;;;;;;4.40;1.07;;;20.10;23.70;;;;;;6263314;28;20219;-60
2021/01/14 14:01:32;;;;;;;2.00;1.13;;;20.50;23.70;;;;;;6265066;28;20232;-61
2021/01/14 14:04:34;;;;;;;0.97;0.87;;;20.80;23.00;;;;;;6271325;28;20227;-60
2021/01/14 14:07:38;;;;;;;2.50;0.90;;;20.00;22.80;;;;;;6260875;28;20235;-64
2021/01/14 14:10:44;;;;;;;3.80;0.90;;;19.00;23.60;;;;;;6252527;28;20475;-60
2021/01/14 14:13:46;;;;;;;0.60;0.40;;;18.10;24.50;;;;;;6252758;28;20486;-62
2021/01/14 14:16:53;;;;;;;1.63;0.70;;;17.70;25.20;;;;;;6252586;28;20483;-60
2021/01/14 14:19:55;;;;;;;0.90;0.60;;;17.00;25.40;;;;;;6264067;28;20584;-60
2021/01/14 14:22:59;;;;;;;0.73;0.47;;;16.60;25.90;;;;;;6262048;28;20474;-60
2021/01/14 14:26:01;;;;;;;1.80;0.63;;;16.20;25.50;;;;;;6277075;28;20470;-60
2021/01/14 14:29:05;;;;;;;2.30;0.50;;;15.30;26.30;;;;;;6251993;28;20471;-60
2021/01/14 14:32:08;;;;;;;2.03;0.80;;;14.00;27.20;;;;;;6251268;28;20493;-60
2021/01/14 14:35:13;;;;;;;1.13;0.70;;;12.80;28.50;;;;;;6242945;28;20479;-60
2021/01/14 14:38:15;;;;;;;2.10;0.70;;;11.40;29.80;;;;;;6265842;28;20475;-60
2021/01/14 14:41:17;;;;;;;1.50;0.70;;;10.40;31.30;;;;;;6276606;28;20512;-61
2021/01/14 14:44:20;;;;;;;1.40;0.73;;;9.70;33.00;;;;;;6272533;28;20478;-60
2021/01/14 14:47:23;;;;;;;3.17;0.77;;;8.60;34.50;;;;;;6251606;28;20505;-60
2021/01/14 14:50:25;;;;;;;1.60;0.83;;;7.40;36.40;;;;;;6251694;28;20459;-60
2021/01/14 14:53:27;;;;;;;2.10;1.50;;;6.60;38.40;;;;;;6266974;28;20472;-61
2021/01/14 14:56:30;;;;;;;0.77;0.77;;;6.10;40.00;;;;;;6276576;28;20446;-61
2021/01/14 14:59:34;;;;;;;1.10;0.80;;;5.60;41.20;;;;;;6276369;28;20466;-60
2021/01/14 15:02:39;;;;;;;1.63;1.00;;;5.50;41.80;;;;;;6276600;28;20449;-61
2021/01/14 15:05:42;;;;;;;1.37;1.27;;;5.20;42.60;;;;;;6276492;28;20869;-60
2021/01/14 15:08:44;;;;;;;5.13;1.00;;;5.10;43.00;;;;;;6276016;28;20891;-60
2021/01/14 15:11:46;;;;;;;2.53;1.00;;;4.90;42.80;;;;;;6276231;28;20462;-60
2021/01/14 15:14:48;;;;;;;1.80;1.03;;;4.90;43.70;;;;;;6276095;28;20458;-60
2021/01/14 15:17:52;;;;;;;4.43;0.90;;;4.70;43.90;;;;;;6276148;28;20470;-64
2021/01/14 15:20:56;;;;;;;1.07;0.73;;;4.70;44.20;;;;;;6276149;28;20469;-62
2021/01/14 15:23:58;;;;;;;1.57;1.00;;;4.70;44.60;;;;;;6276041;28;20477;-62
2021/01/14 15:27:01;;;;;;;0.90;0.90;;;4.60;44.50;;;;;;6276143;28;20472;-62
2021/01/14 15:30:04;;;;;;;1.50;1.40;;;4.60;45.10;;;;;;6258762;28;20481;-61
2021/01/14 15:33:07;;;;;;;2.87;1.30;;;4.50;45.10;;;;;;6250971;28;20810;-59
2021/01/14 15:36:15;;;;;;;4.10;2.63;;;4.40;45.50;;;;;;6249163;28;20922;-60
2021/01/14 15:39:18;;;;;;;3.27;2.50;;;4.40;49.10;;;;;;6268246;28;20553;-60
2021/01/14 15:42:20;;;;;;;1.07;1.03;;;4.40;49.60;;;;;;6261113;28;20479;-60
2021/01/14 15:45:22;;;;;;;1.23;1.10;;;4.60;47.20;;;;;;6267727;28;20489;-59
2021/01/14 15:48:25;;;;;;;1.30;1.20;;;4.60;46.90;;;;;;6258438;28;20577;-59
2021/01/14 15:51:29;;;;;;;0.90;0.83;;;4.40;46.40;;;;;;6260418;28;20489;-59
2021/01/14 15:54:32;;;;;;;2.13;1.37;;;4.20;46.70;;;;;;6262312;28;20541;-59
2021/01/14 15:57:34;;;;;;;1.30;1.20;;;4.20;47.50;;;;;;6262497;28;20471;-59
2021/01/14 16:00:36;;;;;;;2.10;1.40;;;4.30;48.20;;;;;;6261999;28;20843;-59
2021/01/14 16:03:39;;;;;;;4.60;0.93;;;4.20;47.60;;;;;;6259743;28;20930;-65
2021/01/14 16:06:42;;;;;;;1.10;1.10;;;4.00;47.70;;;;;;6259824;28;20788;-60
2021/01/14 16:09:45;;;;;;;1.30;1.20;;;3.90;47.50;;;;;;6262290;28;20465;-63